Time;durP1;ratioP1;P1;durP2;ratioP2;P2;SDS_P1;SDS_P2;PMS_P1;PMS_P2;Temp;Humidity;BMP_temperature;BMP_pressure;BME280_temperature;BME280_humidity;BME280_pressure;Samples;Min_cycle;Max_cycle;Signal;HPM_P1;HPM_P2
2021/03/12 00:02:04;;;;;;;1.85;0.80;;;;;;;;;;5095885;28;20211;-62
2021/03/12 00:04:31;;;;;;;1.50;1.00;;;;;;;;;;5095731;28;20712;-62
2021/03/12 00:06:58;;;;;;;1.45;1.00;;;;;;;;;;5094187;28;20680;-62
2021/03/12 00:09:25;;;;;;;2.92;1.25;;;;;;;;;;5093975;28;20269;-62
2021/03/12 00:11:52;;;;;;;2.72;1.20;;;;;;;;;;5093911;28;20196;-61
2021/03/12 00:14:19;;;;;;;4.43;1.10;;;;;;;;;;5093869;28;20561;-62
2021/03/12 00:16:46;;;;;;;1.75;1.10;;;;;;;;;;5093988;28;20211;-62
2021/03/12 00:19:13;;;;;;;3.97;1.40;;;;;;;;;;5093843;28;20197;-61
2021/03/12 00:21:39;;;;;;;2.50;1.20;;;;;;;;;;5093949;28;20227;-62
2021/03/12 00:24:08;;;;;;;1.52;1.10;;;;;;;;;;5096722;28;20224;-61
2021/03/12 00:26:35;;;;;;;2.50;1.55;;;;;;;;;;5098034;28;20207;-61
2021/03/12 00:29:02;;;;;;;3.00;1.70;;;;;;;;;;5098000;28;20216;-62
2021/03/12 00:31:28;;;;;;;4.53;1.60;;;;;;;;;;5097819;28;20253;-62
2021/03/12 00:33:55;;;;;;;3.35;1.50;;;;;;;;;;5098270;28;20264;-63
2021/03/12 00:36:22;;;;;;;2.00;1.52;;;;;;;;;;5097695;28;20690;-62
2021/03/12 00:38:49;;;;;;;3.47;1.65;;;;;;;;;;5097781;28;20200;-61
2021/03/12 00:41:17;;;;;;;7.10;1.77;;;;;;;;;;5098006;28;20569;-61
2021/03/12 00:43:43;;;;;;;4.15;1.70;;;;;;;;;;5098359;28;20243;-62
2021/03/12 00:46:11;;;;;;;3.15;1.50;;;;;;;;;;5097427;28;20208;-62
2021/03/12 00:48:37;;;;;;;3.40;2.20;;;;;;;;;;5097320;28;20212;-63
2021/03/12 00:51:05;;;;;;;2.67;1.45;;;;;;;;;;5097685;28;20200;-60
2021/03/12 00:53:32;;;;;;;3.75;1.33;;;;;;;;;;5098239;28;20251;-63
2021/03/12 00:55:58;;;;;;;5.03;2.03;;;;;;;;;;5097506;28;20200;-62
2021/03/12 00:58:26;;;;;;;5.15;1.90;;;;;;;;;;5113259;28;20196;-63
2021/03/12 01:00:53;;;;;;;4.05;2.40;;;;;;;;;;5109046;28;20213;-63
2021/03/12 01:03:20;;;;;;;5.05;2.00;;;;;;;;;;5097388;28;20227;-62
2021/03/12 01:05:47;;;;;;;3.20;1.80;;;;;;;;;;5099995;28;20285;-61
2021/03/12 01:08:13;;;;;;;4.10;1.90;;;;;;;;;;5097308;28;20208;-62
2021/03/12 01:10:41;;;;;;;2.05;1.73;;;;;;;;;;5097401;28;20254;-61
2021/03/12 01:13:08;;;;;;;4.03;2.30;;;;;;;;;;5098488;28;20247;-62
2021/03/12 01:15:36;;;;;;;5.35;3.15;;;;;;;;;;5098070;28;20208;-61
2021/03/12 01:18:03;;;;;;;7.82;3.72;;;;;;;;;;5098200;28;20220;-62
2021/03/12 01:20:30;;;;;;;5.15;3.55;;;;;;;;;;5099161;28;20204;-62
2021/03/12 01:22:58;;;;;;;7.60;3.20;;;;;;;;;;5097756;28;20200;-62
2021/03/12 01:25:27;;;;;;;9.80;3.90;;;;;;;;;;5098638;28;20204;-61
2021/03/12 01:27:54;;;;;;;4.13;3.25;;;;;;;;;;5097522;28;20551;-61
2021/03/12 01:30:23;;;;;;;3.58;2.63;;;;;;;;;;5098509;28;20668;-61
2021/03/12 01:32:51;;;;;;;3.13;2.78;;;;;;;;;;5098157;28;20204;-62
2021/03/12 01:35:17;;;;;;;3.70;2.38;;;;;;;;;;5097567;28;20220;-61
2021/03/12 01:37:45;;;;;;;7.20;3.17;;;;;;;;;;5097019;28;20653;-61
2021/03/12 01:40:13;;;;;;;5.95;3.40;;;;;;;;;;5096957;28;20604;-61
2021/03/12 01:42:40;;;;;;;4.55;2.85;;;;;;;;;;5096127;28;20205;-62
2021/03/12 01:45:07;;;;;;;10.18;3.92;;;;;;;;;;5096294;28;20232;-61
2021/03/12 01:47:34;;;;;;;8.88;4.32;;;;;;;;;;5096362;28;20211;-61
2021/03/12 01:50:02;;;;;;;7.05;4.40;;;;;;;;;;5096235;28;20572;-62
2021/03/12 01:52:28;;;;;;;5.53;3.83;;;;;;;;;;5096034;28;20672;-61
2021/03/12 01:54:55;;;;;;;6.65;4.70;;;;;;;;;;5096032;28;20727;-62
2021/03/12 01:57:22;;;;;;;8.95;4.65;;;;;;;;;;5096161;28;20253;-62
2021/03/12 01:59:49;;;;;;;9.45;5.75;;;;;;;;;;5095966;28;20278;-61
2021/03/12 02:02:16;;;;;;;7.85;5.25;;;;;;;;;;5096302;28;20205;-62
2021/03/12 02:04:42;;;;;;;10.80;6.72;;;;;;;;;;5097895;28;20216;-61
2021/03/12 02:07:10;;;;;;;10.25;5.50;;;;;;;;;;5097603;28;20212;-65
2021/03/12 02:09:37;;;;;;;12.10;6.18;;;;;;;;;;5110811;28;20235;-62
2021/03/12 02:12:09;;;;;;;11.20;6.50;;;;;;;;;;5110120;28;20200;-64
2021/03/12 02:14:39;;;;;;;11.70;7.32;;;;;;;;;;5104583;28;20224;-61
2021/03/12 02:17:09;;;;;;;15.18;6.72;;;;;;;;;;5097920;28;20184;-62
2021/03/12 02:19:45;;;;;;;12.82;7.43;;;;;;;;;;5096093;28;20196;-63
2021/03/12 02:22:13;;;;;;;13.20;6.75;;;;;;;;;;5095933;28;20207;-62
2021/03/12 02:24:42;;;;;;;11.23;5.85;;;;;;;;;;5095642;28;20224;-60
2021/03/12 02:27:11;;;;;;;11.20;4.13;;;;;;;;;;5095664;28;20246;-61
2021/03/12 02:29:41;;;;;;;10.50;5.15;;;;;;;;;;5095665;28;20567;-63
2021/03/12 02:32:10;;;;;;;9.52;5.40;;;;;;;;;;5095891;28;20185;-61
2021/03/12 02:34:37;;;;;;;8.57;5.00;;;;;;;;;;5095390;28;20247;-63
2021/03/12 02:37:05;;;;;;;7.13;4.45;;;;;;;;;;5098031;28;20201;-61
2021/03/12 02:39:33;;;;;;;14.95;3.63;;;;;;;;;;5095406;28;20219;-63
2021/03/12 02:42:00;;;;;;;6.30;4.13;;;;;;;;;;5094865;28;20203;-62
2021/03/12 02:44:29;;;;;;;7.93;3.80;;;;;;;;;;5095280;28;20224;-62
2021/03/12 02:46:59;;;;;;;5.88;4.30;;;;;;;;;;5094295;28;20222;-62
2021/03/12 02:49:26;;;;;;;6.55;3.80;;;;;;;;;;5095181;28;20216;-60
2021/03/12 02:51:53;;;;;;;4.68;3.60;;;;;;;;;;5095294;28;20223;-62
2021/03/12 02:54:20;;;;;;;5.93;2.92;;;;;;;;;;5095188;28;20220;-61
2021/03/12 02:56:47;;;;;;;4.65;3.65;;;;;;;;;;5094973;28;20204;-62
2021/03/12 02:59:14;;;;;;;11.00;4.57;;;;;;;;;;5094998;28;20282;-62
2021/03/12 03:01:42;;;;;;;9.35;4.70;;;;;;;;;;5095180;28;20211;-62
2021/03/12 03:04:09;;;;;;;8.30;4.00;;;;;;;;;;5094802;28;20730;-62
2021/03/12 03:06:36;;;;;;;10.32;4.28;;;;;;;;;;5097122;28;20208;-63
2021/03/12 03:09:03;;;;;;;7.80;4.22;;;;;;;;;;5117542;28;20306;-62
2021/03/12 03:11:30;;;;;;;6.47;4.68;;;;;;;;;;5116501;28;20205;-61
2021/03/12 03:13:57;;;;;;;7.88;4.85;;;;;;;;;;5108082;28;20224;-62
2021/03/12 03:16:25;;;;;;;11.88;5.35;;;;;;;;;;5096417;28;20227;-61
2021/03/12 03:18:54;;;;;;;5.78;4.80;;;;;;;;;;5095044;28;20197;-61
2021/03/12 03:21:21;;;;;;;9.05;4.82;;;;;;;;;;5094803;28;20200;-62
2021/03/12 03:23:48;;;;;;;8.23;4.30;;;;;;;;;;5094271;28;20251;-62
2021/03/12 03:26:15;;;;;;;7.57;4.93;;;;;;;;;;5094241;28;20206;-61
2021/03/12 03:28:42;;;;;;;6.22;4.43;;;;;;;;;;5094387;28;20219;-62
2021/03/12 03:31:08;;;;;;;6.60;4.30;;;;;;;;;;5094238;28;20200;-61
2021/03/12 03:33:35;;;;;;;6.90;4.97;;;;;;;;;;5094439;28;20221;-62
2021/03/12 03:36:03;;;;;;;7.03;4.63;;;;;;;;;;5094240;28;20238;-61
2021/03/12 03:38:30;;;;;;;12.45;5.10;;;;;;;;;;5094264;28;20196;-62
2021/03/12 03:40:57;;;;;;;10.75;5.05;;;;;;;;;;5094276;28;20212;-62
2021/03/12 03:43:26;;;;;;;11.60;6.28;;;;;;;;;;5098057;28;20251;-62
2021/03/12 03:45:53;;;;;;;8.63;5.55;;;;;;;;;;5095507;28;20672;-61
2021/03/12 03:48:21;;;;;;;9.93;4.90;;;;;;;;;;5095982;28;20606;-62
2021/03/12 03:50:48;;;;;;;6.93;4.50;;;;;;;;;;5098234;28;20204;-62
2021/03/12 03:53:16;;;;;;;7.78;4.97;;;;;;;;;;5098361;28;20204;-62
2021/03/12 03:55:43;;;;;;;8.43;4.95;;;;;;;;;;5103887;28;20691;-63
2021/03/12 03:58:10;;;;;;;4.95;4.22;;;;;;;;;;5105040;28;20706;-63
2021/03/12 04:00:37;;;;;;;7.03;5.13;;;;;;;;;;5098055;28;20208;-64
2021/03/12 04:03:05;;;;;;;6.18;5.57;;;;;;;;;;5095743;28;20213;-61
2021/03/12 04:07:52;;;;;;;6.97;5.40;;;;;;;;;;5113020;27;20548;-62
2021/03/12 04:10:20;;;;;;;8.65;5.30;;;;;;;;;;5113262;28;20200;-63
2021/03/12 04:12:48;;;;;;;8.88;4.95;;;;;;;;;;5113108;28;20287;-62
2021/03/12 04:15:15;;;;;;;9.00;4.90;;;;;;;;;;5112596;28;20280;-62
2021/03/12 04:17:42;;;;;;;6.50;5.60;;;;;;;;;;5111515;28;20567;-61
2021/03/12 04:20:10;;;;;;;8.73;5.07;;;;;;;;;;5111533;28;20204;-61
2021/03/12 04:22:37;;;;;;;8.35;5.35;;;;;;;;;;5111497;28;20570;-62
2021/03/12 04:25:06;;;;;;;10.77;6.30;;;;;;;;;;5111297;28;20224;-61
2021/03/12 04:27:33;;;;;;;9.55;5.72;;;;;;;;;;5111430;28;20215;-63
2021/03/12 04:30:00;;;;;;;6.85;4.93;;;;;;;;;;5111520;28;20199;-62
2021/03/12 04:32:27;;;;;;;9.10;6.47;;;;;;;;;;5122128;28;20203;-63
2021/03/12 04:34:54;;;;;;;10.82;5.90;;;;;;;;;;5121076;28;20711;-63
2021/03/12 04:37:21;;;;;;;4.10;3.80;;;;;;;;;;5112202;28;20225;-62
2021/03/12 04:39:49;;;;;;;8.60;4.38;;;;;;;;;;5110961;28;20253;-61
2021/03/12 04:42:17;;;;;;;5.82;5.25;;;;;;;;;;5111272;28;20621;-61
2021/03/12 04:44:44;;;;;;;6.82;5.57;;;;;;;;;;5111254;28;20219;-61
2021/03/12 04:47:11;;;;;;;6.43;4.80;;;;;;;;;;5110581;28;20691;-61
2021/03/12 04:49:38;;;;;;;10.20;5.55;;;;;;;;;;5110823;28;20199;-62
2021/03/12 04:52:05;;;;;;;8.73;5.10;;;;;;;;;;5110508;28;20200;-62
2021/03/12 04:54:33;;;;;;;9.07;5.80;;;;;;;;;;5110766;28;20216;-61
2021/03/12 04:57:00;;;;;;;7.68;4.95;;;;;;;;;;5110712;28;20599;-61
2021/03/12 04:59:28;;;;;;;7.70;5.35;;;;;;;;;;5110773;28;20196;-62
2021/03/12 05:01:55;;;;;;;11.60;4.43;;;;;;;;;;5110532;28;20204;-61
2021/03/12 05:04:22;;;;;;;7.18;5.55;;;;;;;;;;5110320;28;20228;-62
2021/03/12 05:06:49;;;;;;;14.85;5.75;;;;;;;;;;5110133;28;20352;-61
2021/03/12 05:09:16;;;;;;;8.68;4.90;;;;;;;;;;5110092;28;20662;-63
2021/03/12 05:11:43;;;;;;;6.93;4.70;;;;;;;;;;5110918;28;20211;-61
2021/03/12 05:14:10;;;;;;;8.73;4.65;;;;;;;;;;5110546;28;20277;-61
2021/03/12 05:16:37;;;;;;;10.57;4.80;;;;;;;;;;5110445;28;20253;-62
2021/03/12 05:19:04;;;;;;;7.38;5.18;;;;;;;;;;5097473;28;20200;-60
2021/03/12 05:21:31;;;;;;;8.77;5.40;;;;;;;;;;5096880;28;20246;-61
2021/03/12 05:23:58;;;;;;;7.90;4.38;;;;;;;;;;5096419;28;20234;-61
2021/03/12 05:26:25;;;;;;;6.80;4.10;;;;;;;;;;5096565;28;20224;-61
2021/03/12 05:28:53;;;;;;;6.20;3.45;;;;;;;;;;5096758;28;20204;-63
2021/03/12 05:31:21;;;;;;;8.38;4.03;;;;;;;;;;5096643;28;20207;-61
2021/03/12 05:33:49;;;;;;;3.38;3.05;;;;;;;;;;5096761;28;20221;-63
2021/03/12 05:36:15;;;;;;;3.38;2.92;;;;;;;;;;5096160;28;20201;-63
2021/03/12 05:38:42;;;;;;;5.47;3.88;;;;;;;;;;5096324;28;20211;-62
2021/03/12 05:41:09;;;;;;;5.20;3.25;;;;;;;;;;5096724;28;20544;-62
2021/03/12 05:43:36;;;;;;;5.00;3.55;;;;;;;;;;5096193;28;20255;-61
2021/03/12 05:46:04;;;;;;;5.93;3.25;;;;;;;;;;5096208;28;20224;-62
2021/03/12 05:48:31;;;;;;;5.25;3.10;;;;;;;;;;5096806;28;20288;-62
2021/03/12 05:50:59;;;;;;;6.70;3.53;;;;;;;;;;5097956;28;20602;-62
2021/03/12 05:53:26;;;;;;;5.25;3.45;;;;;;;;;;5096022;28;20216;-62
2021/03/12 05:55:53;;;;;;;5.57;3.22;;;;;;;;;;5096237;28;20277;-62
2021/03/12 05:58:20;;;;;;;5.78;4.25;;;;;;;;;;5096206;28;20200;-62
2021/03/12 06:00:47;;;;;;;7.85;3.90;;;;;;;;;;5096238;28;20215;-61
2021/03/12 06:03:14;;;;;;;7.20;3.90;;;;;;;;;;5097116;28;20205;-61
2021/03/12 06:05:43;;;;;;;4.88;3.72;;;;;;;;;;5096447;28;20227;-61
2021/03/12 06:08:11;;;;;;;8.82;4.90;;;;;;;;;;5098206;28;20235;-61
2021/03/12 06:10:38;;;;;;;5.32;3.80;;;;;;;;;;5106973;28;20211;-61
2021/03/12 06:13:05;;;;;;;7.50;4.57;;;;;;;;;;5105133;28;20676;-61
2021/03/12 06:15:35;;;;;;;4.85;3.90;;;;;;;;;;5101936;28;20215;-62
2021/03/12 06:18:13;;;;;;;5.97;3.45;;;;;;;;;;5102694;28;20249;-61
2021/03/12 06:20:39;;;;;;;9.48;4.20;;;;;;;;;;5099312;28;20292;-61
2021/03/12 06:23:06;;;;;;;6.03;4.20;;;;;;;;;;5099048;28;20200;-60
2021/03/12 06:25:35;;;;;;;5.97;3.80;;;;;;;;;;5097779;28;20227;-61
2021/03/12 06:28:16;;;;;;;10.98;4.32;;;;;;;;;;5098885;28;20668;-61
2021/03/12 06:30:43;;;;;;;7.20;4.35;;;;;;;;;;5096060;28;20208;-61
2021/03/12 06:33:24;;;;;;;11.02;3.97;;;;;;;;;;5097488;28;20672;-62
2021/03/12 06:35:51;;;;;;;6.30;3.65;;;;;;;;;;5095807;28;20191;-62
2021/03/12 06:38:18;;;;;;;8.27;4.20;;;;;;;;;;5095880;28;20200;-61
2021/03/12 06:40:46;;;;;;;6.82;4.05;;;;;;;;;;5096686;28;20672;-61
2021/03/12 06:43:14;;;;;;;9.27;4.50;;;;;;;;;;5096107;28;20695;-62
2021/03/12 06:45:54;;;;;;;7.75;4.95;;;;;;;;;;5098879;28;20203;-62
2021/03/12 06:48:21;;;;;;;6.50;4.18;;;;;;;;;;5110788;28;20200;-61
2021/03/12 06:50:49;;;;;;;7.18;4.47;;;;;;;;;;5098324;28;20207;-62
2021/03/12 06:53:20;;;;;;;9.95;4.72;;;;;;;;;;5096977;28;20613;-61
2021/03/12 06:55:48;;;;;;;13.52;6.78;;;;;;;;;;5104061;28;20200;-61
2021/03/12 06:58:14;;;;;;;9.52;4.90;;;;;;;;;;5105635;28;20196;-61
2021/03/12 07:00:41;;;;;;;8.90;5.43;;;;;;;;;;5098279;28;20200;-63
2021/03/12 07:03:17;;;;;;;5.60;3.83;;;;;;;;;;5097813;28;20656;-62
2021/03/12 07:06:04;;;;;;;10.63;5.10;;;;;;;;;;5097596;28;20220;-62
2021/03/12 07:08:32;;;;;;;6.97;4.50;;;;;;;;;;5107717;28;20222;-62
2021/03/12 07:11:00;;;;;;;6.78;4.43;;;;;;;;;;5105954;28;20226;-62
2021/03/12 07:13:27;;;;;;;12.10;5.55;;;;;;;;;;5105040;28;20245;-62
2021/03/12 07:15:55;;;;;;;13.35;5.88;;;;;;;;;;5101735;28;20200;-63
2021/03/12 07:18:22;;;;;;;7.63;3.88;;;;;;;;;;5098237;28;20204;-62
2021/03/12 07:20:48;;;;;;;8.70;5.30;;;;;;;;;;5097349;28;20204;-61
2021/03/12 07:23:16;;;;;;;6.75;4.63;;;;;;;;;;5096743;28;20576;-62
2021/03/12 07:25:45;;;;;;;9.13;4.75;;;;;;;;;;5096388;28;20216;-62
2021/03/12 07:28:14;;;;;;;8.70;5.57;;;;;;;;;;5096767;28;20219;-62
2021/03/12 07:30:41;;;;;;;8.75;4.70;;;;;;;;;;5098805;28;20632;-60
2021/03/12 07:33:08;;;;;;;7.20;5.70;;;;;;;;;;5100586;28;20254;-64
2021/03/12 07:35:37;;;;;;;9.38;4.30;;;;;;;;;;5098874;28;20211;-62
2021/03/12 07:38:05;;;;;;;8.38;5.32;;;;;;;;;;5099843;28;20205;-62
2021/03/12 07:40:32;;;;;;;14.23;5.35;;;;;;;;;;5097485;28;20200;-62
2021/03/12 07:43:00;;;;;;;8.55;4.80;;;;;;;;;;5098585;28;20211;-62
2021/03/12 07:45:28;;;;;;;9.38;5.35;;;;;;;;;;5098809;28;20260;-62
2021/03/12 07:47:55;;;;;;;10.25;5.00;;;;;;;;;;5099537;28;20258;-62
2021/03/12 07:50:26;;;;;;;11.63;5.30;;;;;;;;;;5100059;28;20211;-61
2021/03/12 07:52:53;;;;;;;9.13;4.95;;;;;;;;;;5100913;28;20207;-62
2021/03/12 07:55:38;;;;;;;6.70;4.20;;;;;;;;;;5100753;28;20216;-60
2021/03/12 07:58:06;;;;;;;9.20;4.82;;;;;;;;;;5100884;28;20215;-62
2021/03/12 08:00:53;;;;;;;10.73;4.80;;;;;;;;;;5099701;28;20265;-62
2021/03/12 08:03:28;;;;;;;6.57;4.30;;;;;;;;;;5100091;28;20235;-62
2021/03/12 08:05:55;;;;;;;9.40;5.88;;;;;;;;;;5098954;28;20242;-62
2021/03/12 08:08:32;;;;;;;9.15;4.55;;;;;;;;;;5098376;28;20191;-62
2021/03/12 08:11:17;;;;;;;5.07;4.57;;;;;;;;;;5098994;28;20204;-61
2021/03/12 08:13:44;;;;;;;11.23;4.20;;;;;;;;;;5098745;28;20286;-61
2021/03/12 08:16:12;;;;;;;6.82;4.50;;;;;;;;;;5100099;28;20249;-62
2021/03/12 08:18:39;;;;;;;7.18;5.70;;;;;;;;;;5098440;28;20254;-63
2021/03/12 08:21:27;;;;;;;14.38;4.45;;;;;;;;;;5102853;28;20208;-61
2021/03/12 08:23:54;;;;;;;11.52;5.43;;;;;;;;;;5099545;28;20265;-61
2021/03/12 08:26:35;;;;;;;8.90;5.38;;;;;;;;;;5098173;28;20470;-61
2021/03/12 08:29:17;;;;;;;13.93;5.75;;;;;;;;;;5099413;28;20201;-63
2021/03/12 08:31:44;;;;;;;7.85;4.50;;;;;;;;;;5098251;28;20200;-62
2021/03/12 08:34:26;;;;;;;6.45;4.60;;;;;;;;;;5098105;28;20633;-62
2021/03/12 08:36:53;;;;;;;5.65;4.50;;;;;;;;;;5097595;28;20676;-62
2021/03/12 08:39:26;;;;;;;8.95;5.07;;;;;;;;;;5097314;28;20208;-62
2021/03/12 08:41:53;;;;;;;6.38;4.60;;;;;;;;;;5096412;28;20200;-63
2021/03/12 08:44:20;;;;;;;7.20;4.20;;;;;;;;;;5097367;28;20231;-62
2021/03/12 08:46:49;;;;;;;6.53;4.60;;;;;;;;;;5099817;28;20688;-61
2021/03/12 08:49:16;;;;;;;10.65;5.00;;;;;;;;;;5098414;28;20200;-61
2021/03/12 08:51:43;;;;;;;6.57;4.20;;;;;;;;;;5099059;28;20281;-61
2021/03/12 08:54:10;;;;;;;7.57;4.13;;;;;;;;;;5101674;28;20239;-62
2021/03/12 08:56:37;;;;;;;10.13;4.95;;;;;;;;;;5103096;28;20214;-62
2021/03/12 08:59:05;;;;;;;7.00;4.95;;;;;;;;;;5101510;28;20664;-63
2021/03/12 09:01:32;;;;;;;8.90;5.40;;;;;;;;;;5104669;28;20204;-62
2021/03/12 09:04:00;;;;;;;7.53;4.28;;;;;;;;;;5110746;28;20224;-62
2021/03/12 09:06:28;;;;;;;6.43;4.63;;;;;;;;;;5105113;28;20239;-61
2021/03/12 09:08:55;;;;;;;7.15;3.80;;;;;;;;;;5099346;28;20663;-62
2021/03/12 09:11:23;;;;;;;9.10;5.22;;;;;;;;;;5099156;28;20216;-62
2021/03/12 09:13:51;;;;;;;8.23;4.28;;;;;;;;;;5099824;28;20296;-62
2021/03/12 09:16:19;;;;;;;9.05;4.43;;;;;;;;;;5100170;28;20543;-61
2021/03/12 09:18:46;;;;;;;6.22;4.22;;;;;;;;;;5100038;28;20200;-63
2021/03/12 09:21:15;;;;;;;11.75;4.90;;;;;;;;;;5104154;28;20209;-58
2021/03/12 09:23:43;;;;;;;6.63;4.10;;;;;;;;;;5109656;28;20231;-63
2021/03/12 09:26:11;;;;;;;6.65;3.40;;;;;;;;;;5108373;28;20657;-63
2021/03/12 09:28:38;;;;;;;9.63;4.80;;;;;;;;;;5104068;28;20204;-61
2021/03/12 09:31:06;;;;;;;9.15;4.30;;;;;;;;;;5106990;28;20200;-60
2021/03/12 09:33:34;;;;;;;6.47;4.50;;;;;;;;;;5101730;28;20289;-62
2021/03/12 09:36:02;;;;;;;6.05;4.30;;;;;;;;;;5103499;28;20208;-62
2021/03/12 09:38:37;;;;;;;10.48;5.50;;;;;;;;;;5101617;28;20660;-62
2021/03/12 09:41:14;;;;;;;11.77;6.43;;;;;;;;;;5100461;28;20195;-62
2021/03/12 09:43:41;;;;;;;9.15;6.20;;;;;;;;;;5097478;28;20733;-63
2021/03/12 09:46:07;;;;;;;7.82;5.97;;;;;;;;;;5098843;28;20265;-62
2021/03/12 09:48:34;;;;;;;8.05;6.55;;;;;;;;;;5098938;28;20660;-61
2021/03/12 09:51:01;;;;;;;6.00;5.40;;;;;;;;;;5099494;28;20197;-61
2021/03/12 09:53:28;;;;;;;7.75;6.63;;;;;;;;;;5098035;28;20231;-63
2021/03/12 09:55:56;;;;;;;7.45;6.30;;;;;;;;;;5098402;28;20574;-61
2021/03/12 09:58:23;;;;;;;8.18;6.63;;;;;;;;;;5099315;28;20208;-62
2021/03/12 10:00:50;;;;;;;10.82;5.68;;;;;;;;;;5106468;28;20196;-61
2021/03/12 10:03:17;;;;;;;8.07;6.05;;;;;;;;;;5104110;28;20200;-62
2021/03/12 10:05:43;;;;;;;9.55;6.13;;;;;;;;;;5100886;28;20215;-62
2021/03/12 10:08:10;;;;;;;10.18;5.80;;;;;;;;;;5099149;28;20200;-61
2021/03/12 10:10:37;;;;;;;10.52;6.13;;;;;;;;;;5097745;28;20204;-62
2021/03/12 10:13:07;;;;;;;12.52;5.22;;;;;;;;;;5097827;28;20196;-63
2021/03/12 10:15:34;;;;;;;7.40;5.55;;;;;;;;;;5099340;28;20249;-61
2021/03/12 10:18:01;;;;;;;13.50;5.45;;;;;;;;;;5097192;28;20664;-60
2021/03/12 10:20:29;;;;;;;5.60;5.10;;;;;;;;;;5098519;28;20676;-62
2021/03/12 10:22:57;;;;;;;7.43;4.47;;;;;;;;;;5103780;28;20215;-61
2021/03/12 10:25:25;;;;;;;6.57;5.00;;;;;;;;;;5111998;28;20220;-63
2021/03/12 10:27:52;;;;;;;7.28;4.97;;;;;;;;;;5107674;28;20217;-63
2021/03/12 10:30:21;;;;;;;9.98;5.07;;;;;;;;;;5103854;28;20207;-62
2021/03/12 10:32:49;;;;;;;6.20;4.60;;;;;;;;;;5100241;28;20205;-62
2021/03/12 10:35:20;;;;;;;7.10;3.75;;;;;;;;;;5104062;28;20551;-64
2021/03/12 10:37:47;;;;;;;6.38;4.55;;;;;;;;;;5097522;28;20203;-64
2021/03/12 10:40:14;;;;;;;5.70;3.97;;;;;;;;;;5098467;28;20267;-62
2021/03/12 10:42:41;;;;;;;6.50;4.03;;;;;;;;;;5101471;28;20200;-63
2021/03/12 10:45:08;;;;;;;5.30;4.30;;;;;;;;;;5100020;28;20536;-63
2021/03/12 10:47:36;;;;;;;10.63;4.20;;;;;;;;;;5097716;28;20474;-63
2021/03/12 10:50:18;;;;;;;6.93;4.30;;;;;;;;;;5097548;28;20510;-62
2021/03/12 10:52:44;;;;;;;7.80;4.47;;;;;;;;;;5097143;28;20423;-63
2021/03/12 10:55:12;;;;;;;11.30;3.72;;;;;;;;;;5096334;28;20458;-62
2021/03/12 10:57:39;;;;;;;10.43;3.90;;;;;;;;;;5096162;28;20196;-64
2021/03/12 11:00:07;;;;;;;9.00;3.90;;;;;;;;;;5095459;28;20454;-64
2021/03/12 11:02:35;;;;;;;9.13;3.80;;;;;;;;;;5095515;28;20555;-64
2021/03/12 11:05:03;;;;;;;4.67;3.53;;;;;;;;;;5095349;28;20470;-65
2021/03/12 11:07:29;;;;;;;7.63;3.70;;;;;;;;;;5095655;28;20482;-64
2021/03/12 11:09:56;;;;;;;12.17;4.00;;;;;;;;;;5096821;28;20804;-63
2021/03/12 11:12:24;;;;;;;8.43;4.25;;;;;;;;;;5097499;28;20453;-64
2021/03/12 11:14:51;;;;;;;6.93;3.80;;;;;;;;;;5097512;28;20565;-63
2021/03/12 11:17:18;;;;;;;9.33;3.43;;;;;;;;;;5097511;28;20447;-63
2021/03/12 11:19:47;;;;;;;6.50;3.50;;;;;;;;;;5096638;28;20453;-64
2021/03/12 11:22:15;;;;;;;6.80;3.63;;;;;;;;;;5097158;28;20449;-63
2021/03/12 11:24:42;;;;;;;10.20;3.77;;;;;;;;;;5097543;28;20492;-64
2021/03/12 11:27:08;;;;;;;7.00;3.13;;;;;;;;;;5096694;28;20474;-63
2021/03/12 11:29:35;;;;;;;5.47;3.03;;;;;;;;;;5096117;28;20449;-64
2021/03/12 11:32:02;;;;;;;5.83;3.47;;;;;;;;;;5096486;28;20450;-64
2021/03/12 11:34:29;;;;;;;6.50;2.90;;;;;;;;;;5094996;28;20958;-63
2021/03/12 11:36:56;;;;;;;6.23;3.63;;;;;;;;;;5094855;28;20814;-64
2021/03/12 11:39:24;;;;;;;11.63;3.90;;;;;;;;;;5094648;28;20550;-64
2021/03/12 11:41:51;;;;;;;6.03;3.03;;;;;;;;;;5094805;28;20934;-64
2021/03/12 11:44:17;;;;;;;4.10;2.97;;;;;;;;;;5095054;28;20515;-64
2021/03/12 11:46:44;;;;;;;4.87;3.87;;;;;;;;;;5095696;28;20474;-65
2021/03/12 11:49:11;;;;;;;9.03;3.23;;;;;;;;;;5106407;28;20460;-64
2021/03/12 11:51:38;;;;;;;6.70;3.30;;;;;;;;;;5098841;28;20446;-64
2021/03/12 11:54:05;;;;;;;5.70;2.63;;;;;;;;;;5095522;28;20486;-65
2021/03/12 11:56:33;;;;;;;7.80;3.77;;;;;;;;;;5093898;28;20479;-62
2021/03/12 11:59:00;;;;;;;4.20;2.53;;;;;;;;;;5094740;28;20527;-64
2021/03/12 12:01:28;;;;;;;7.87;3.00;;;;;;;;;;5094038;28;20443;-63
2021/03/12 12:03:55;;;;;;;5.47;2.80;;;;;;;;;;5094444;28;20559;-65
2021/03/12 12:06:22;;;;;;;7.07;2.43;;;;;;;;;;5094308;28;20446;-64
2021/03/12 12:08:48;;;;;;;5.30;2.47;;;;;;;;;;5095377;28;20446;-62
2021/03/12 12:11:15;;;;;;;4.07;2.50;;;;;;;;;;5094490;28;20438;-64
2021/03/12 12:13:43;;;;;;;10.40;2.60;;;;;;;;;;5094446;28;20522;-65
2021/03/12 12:16:10;;;;;;;4.77;2.77;;;;;;;;;;5096650;28;20442;-64
2021/03/12 12:18:36;;;;;;;3.20;2.60;;;;;;;;;;5096219;28;20446;-63
2021/03/12 12:21:03;;;;;;;7.13;2.60;;;;;;;;;;5096905;28;20862;-63
2021/03/12 12:23:30;;;;;;;5.83;3.63;;;;;;;;;;5097452;28;20458;-64
2021/03/12 12:25:57;;;;;;;4.50;2.53;;;;;;;;;;5096844;28;20454;-64
2021/03/12 12:28:24;;;;;;;8.17;2.83;;;;;;;;;;5098914;28;20582;-62
2021/03/12 12:30:52;;;;;;;5.20;2.83;;;;;;;;;;5101346;28;20475;-64
2021/03/12 12:33:19;;;;;;;4.73;2.07;;;;;;;;;;5101185;28;20942;-63
2021/03/12 12:35:46;;;;;;;9.00;3.00;;;;;;;;;;5101021;28;20430;-64
2021/03/12 12:38:13;;;;;;;5.83;2.60;;;;;;;;;;5102258;28;20443;-62
2021/03/12 12:40:40;;;;;;;5.97;2.17;;;;;;;;;;5101387;28;20438;-64
2021/03/12 12:43:06;;;;;;;5.73;2.30;;;;;;;;;;5100612;28;20475;-63
2021/03/12 12:45:33;;;;;;;6.97;2.67;;;;;;;;;;5101528;28;20442;-62
2021/03/12 12:48:01;;;;;;;5.87;2.40;;;;;;;;;;5101149;28;20961;-63
2021/03/12 12:50:28;;;;;;;3.80;1.90;;;;;;;;;;5102278;28;20434;-64
2021/03/12 12:52:56;;;;;;;6.10;2.53;;;;;;;;;;5102351;28;20446;-64
2021/03/12 12:55:23;;;;;;;5.37;2.37;;;;;;;;;;5103581;28;20466;-65
2021/03/12 12:57:50;;;;;;;3.50;2.00;;;;;;;;;;5099172;28;20479;-63
2021/03/12 13:00:17;;;;;;;5.60;2.10;;;;;;;;;;5097614;28;20438;-64
2021/03/12 13:02:44;;;;;;;5.33;2.70;;;;;;;;;;5098914;28;20446;-64
2021/03/12 13:05:12;;;;;;;4.93;2.43;;;;;;;;;;5102518;28;20777;-61
2021/03/12 13:07:39;;;;;;;4.30;2.07;;;;;;;;;;5098218;28;20490;-64
2021/03/12 13:10:08;;;;;;;3.67;2.40;;;;;;;;;;5098817;28;20450;-63
2021/03/12 13:12:35;;;;;;;4.20;1.90;;;;;;;;;;5101170;28;20454;-64
2021/03/12 13:15:02;;;;;;;3.70;2.20;;;;;;;;;;5108331;28;20469;-62
2021/03/12 13:17:28;;;;;;;4.20;2.10;;;;;;;;;;5105202;28;20445;-65
2021/03/12 13:19:56;;;;;;;7.00;2.13;;;;;;;;;;5098647;28;20442;-64
2021/03/12 13:22:23;;;;;;;9.27;2.43;;;;;;;;;;5101577;28;20450;-64
2021/03/12 13:24:50;;;;;;;8.87;2.67;;;;;;;;;;5099504;28;20462;-63
2021/03/12 13:27:17;;;;;;;7.67;2.33;;;;;;;;;;5099435;28;20470;-64
2021/03/12 13:29:44;;;;;;;9.17;2.37;;;;;;;;;;5100967;28;20591;-64
2021/03/12 13:32:11;;;;;;;4.83;1.90;;;;;;;;;;5098768;28;20935;-63
2021/03/12 13:34:38;;;;;;;4.70;2.00;;;;;;;;;;5097905;28;21012;-63
2021/03/12 13:37:05;;;;;;;6.23;2.00;;;;;;;;;;5099601;28;20446;-64
2021/03/12 13:39:33;;;;;;;4.80;2.30;;;;;;;;;;5097911;28;20447;-63
2021/03/12 13:42:01;;;;;;;9.23;2.30;;;;;;;;;;5097698;28;20447;-63
2021/03/12 13:44:28;;;;;;;5.60;2.40;;;;;;;;;;5097885;28;20514;-64
2021/03/12 13:46:55;;;;;;;5.50;1.73;;;;;;;;;;5097522;28;20481;-63
2021/03/12 13:49:22;;;;;;;4.20;1.90;;;;;;;;;;5100779;28;20442;-63
2021/03/12 13:51:49;;;;;;;5.50;1.97;;;;;;;;;;5100063;28;20999;-63
2021/03/12 13:54:16;;;;;;;4.10;1.63;;;;;;;;;;5100464;28;20458;-63
2021/03/12 13:56:44;;;;;;;5.67;2.13;;;;;;;;;;5099861;28;20438;-64
2021/03/12 13:59:10;;;;;;;5.10;2.10;;;;;;;;;;5099440;28;20519;-64
2021/03/12 14:01:37;;;;;;;7.30;2.20;;;;;;;;;;5099039;28;20833;-64
2021/03/12 14:04:04;;;;;;;7.30;2.43;;;;;;;;;;5098187;28;20466;-63
2021/03/12 14:06:31;;;;;;;5.57;1.77;;;;;;;;;;5097781;28;20953;-64
2021/03/12 14:08:57;;;;;;;4.67;1.80;;;;;;;;;;5098764;28;20446;-63
2021/03/12 14:11:24;;;;;;;3.30;2.10;;;;;;;;;;5097420;28;20451;-63
2021/03/12 14:13:52;;;;;;;8.67;1.83;;;;;;;;;;5096358;28;20470;-63
2021/03/12 14:16:19;;;;;;;6.27;2.23;;;;;;;;;;5096540;28;20846;-62
2021/03/12 14:18:45;;;;;;;7.57;1.53;;;;;;;;;;5096531;28;20449;-63
2021/03/12 14:21:12;;;;;;;5.93;1.90;;;;;;;;;;5098875;28;20461;-63
2021/03/12 14:23:39;;;;;;;7.70;2.13;;;;;;;;;;5096336;28;20480;-64
2021/03/12 14:26:06;;;;;;;4.07;2.00;;;;;;;;;;5096055;28;20493;-64
2021/03/12 14:28:33;;;;;;;5.33;1.67;;;;;;;;;;5095288;28;20482;-62
2021/03/12 14:31:01;;;;;;;5.53;1.70;;;;;;;;;;5095697;28;21025;-63
2021/03/12 14:33:28;;;;;;;6.03;2.07;;;;;;;;;;5095032;28;20454;-62
2021/03/12 14:35:55;;;;;;;4.30;1.60;;;;;;;;;;5095375;28;20568;-63
2021/03/12 14:38:21;;;;;;;5.90;1.47;;;;;;;;;;5094945;28;20838;-62
2021/03/12 14:40:48;;;;;;;5.20;1.77;;;;;;;;;;5094804;28;20775;-63
2021/03/12 14:43:15;;;;;;;7.70;1.90;;;;;;;;;;5095215;28;20949;-64
2021/03/12 14:45:41;;;;;;;3.27;1.43;;;;;;;;;;5095538;28;20457;-63
2021/03/12 14:48:09;;;;;;;3.80;1.70;;;;;;;;;;5094713;28;20531;-63